createdAt,value
2023-10-27T00:01:17.239Z,100.00
2023-10-27T00:03:44.269Z,100.00
2023-10-27T00:06:11.229Z,100.00
2023-10-27T00:08:38.171Z,100.00
2023-10-27T00:11:05.590Z,100.00
2023-10-27T00:13:33.927Z,100.00
2023-10-27T00:16:00.908Z,100.00
2023-10-27T00:18:28.287Z,100.00
2023-10-27T00:20:55.290Z,100.00
2023-10-27T00:23:22.224Z,100.00
2023-10-27T00:25:49.258Z,100.00
2023-10-27T00:28:16.255Z,100.00
2023-10-27T00:30:44.625Z,100.00
2023-10-27T00:33:11.740Z,100.00
2023-10-27T00:35:38.734Z,100.00
2023-10-27T00:38:05.729Z,100.00
2023-10-27T00:40:32.758Z,100.00
2023-10-27T00:43:02.693Z,100.00
2023-10-27T00:45:29.741Z,100.00
2023-10-27T00:47:58.072Z,100.00
2023-10-27T00:50:25.242Z,100.00
2023-10-27T00:52:52.679Z,100.00
2023-10-27T00:55:20.123Z,100.00
2023-10-27T00:57:48.605Z,100.00
2023-10-27T01:00:15.757Z,100.00
2023-10-27T01:02:42.781Z,100.00
2023-10-27T01:05:12.101Z,100.00
2023-10-27T01:07:39.203Z,100.00
2023-10-27T01:10:08.018Z,100.00
2023-10-27T01:12:35.052Z,100.00
2023-10-27T01:15:02.020Z,100.00
2023-10-27T01:17:28.982Z,100.00
2023-10-27T01:19:56.067Z,100.00
2023-10-27T01:22:24.626Z,100.00
2023-10-27T01:24:52.992Z,100.00
2023-10-27T01:27:19.987Z,100.00
2023-10-27T01:29:46.986Z,100.00
2023-10-27T01:32:13.909Z,100.00
2023-10-27T01:34:40.897Z,100.00
2023-10-27T01:37:07.910Z,100.00
2023-10-27T01:39:34.949Z,100.00
2023-10-27T01:42:03.666Z,100.00
2023-10-27T01:44:30.729Z,100.00
2023-10-27T01:46:57.686Z,100.00
2023-10-27T01:49:24.707Z,100.00
2023-10-27T01:51:51.756Z,100.00
2023-10-27T01:54:18.718Z,100.00
2023-10-27T01:56:45.681Z,100.00
2023-10-27T01:59:14.000Z,100.00
2023-10-27T02:01:41.061Z,100.00
2023-10-27T02:04:08.106Z,100.00
2023-10-27T02:06:35.114Z,100.00
2023-10-27T02:09:02.046Z,100.00
2023-10-27T02:11:29.039Z,100.00
2023-10-27T02:13:56.135Z,100.00
2023-10-27T02:16:24.469Z,100.00
2023-10-27T02:18:51.559Z,100.00
2023-10-27T02:21:18.579Z,100.00
2023-10-27T02:23:45.538Z,100.00
2023-10-27T02:26:12.489Z,100.00
2023-10-27T02:28:39.438Z,100.00
2023-10-27T02:31:06.473Z,100.00
2023-10-27T02:33:34.873Z,100.00
2023-10-27T02:36:01.873Z,100.00
2023-10-27T02:38:28.812Z,100.00
2023-10-27T02:40:55.798Z,100.00
2023-10-27T02:43:22.862Z,100.00
2023-10-27T02:45:59.935Z,100.00
2023-10-27T02:48:27.028Z,100.00
2023-10-27T02:50:55.384Z,100.00
2023-10-27T02:53:22.357Z,100.00
2023-10-27T02:55:49.812Z,100.00
2023-10-27T02:58:17.447Z,100.00
2023-10-27T03:00:44.461Z,100.00
2023-10-27T03:03:11.628Z,100.00
2023-10-27T03:05:38.593Z,100.00
2023-10-27T03:08:06.924Z,100.00
2023-10-27T03:10:33.938Z,100.00
2023-10-27T03:13:00.886Z,100.00
2023-10-27T03:15:27.847Z,100.00
2023-10-27T03:17:54.930Z,100.00
2023-10-27T03:20:21.888Z,100.00
2023-10-27T03:22:48.843Z,100.00
2023-10-27T03:25:17.363Z,100.00
2023-10-27T03:27:44.345Z,100.00
2023-10-27T03:30:11.752Z,100.00
2023-10-27T03:32:39.515Z,100.00
2023-10-27T03:35:06.773Z,100.00
2023-10-27T03:37:33.770Z,100.00
2023-10-27T03:40:00.818Z,100.00
2023-10-27T03:42:29.142Z,100.00
2023-10-27T03:44:56.132Z,100.00
2023-10-27T03:47:23.078Z,100.00
2023-10-27T03:49:50.024Z,100.00
2023-10-27T03:52:17.018Z,100.00
2023-10-27T03:54:44.234Z,100.00
2023-10-27T03:57:11.178Z,100.00
2023-10-27T03:59:39.502Z,100.00
2023-10-27T04:02:06.476Z,100.00
2023-10-27T04:04:33.578Z,100.00
2023-10-27T04:07:00.555Z,100.00
2023-10-27T04:09:27.614Z,100.00
2023-10-27T04:11:54.542Z,100.00
2023-10-27T04:14:21.484Z,100.00
2023-10-27T04:16:49.788Z,100.00
2023-10-27T04:19:17.106Z,100.00
2023-10-27T04:21:44.067Z,100.00
2023-10-27T04:24:11.066Z,100.00
2023-10-27T04:26:38.027Z,100.00
2023-10-27T04:29:05.124Z,100.00
2023-10-27T04:31:32.105Z,100.00
2023-10-27T04:34:00.462Z,100.00
2023-10-27T04:36:27.523Z,100.00
2023-10-27T04:38:54.458Z,100.00
2023-10-27T04:41:21.387Z,100.00
2023-10-27T04:43:48.523Z,100.00
2023-10-27T04:46:15.536Z,100.00
2023-10-27T04:48:42.582Z,100.00
2023-10-27T04:51:10.947Z,100.00
2023-10-27T04:53:37.937Z,100.00
2023-10-27T04:56:05.386Z,100.00
2023-10-27T04:58:32.388Z,100.00
2023-10-27T05:00:59.367Z,100.00
2023-10-27T05:03:26.367Z,100.00
2023-10-27T05:05:53.372Z,100.00
2023-10-27T05:08:21.676Z,100.00
2023-10-27T05:10:48.639Z,100.00
2023-10-27T05:13:15.621Z,100.00
2023-10-27T05:15:52.573Z,100.00
2023-10-27T05:18:19.611Z,100.00
2023-10-27T05:20:46.602Z,100.00
2023-10-27T05:23:13.565Z,100.00
2023-10-27T05:25:42.295Z,100.00
2023-10-27T05:28:09.249Z,100.00
2023-10-27T05:30:36.363Z,100.00
2023-10-27T05:33:03.656Z,100.00
2023-10-27T05:35:30.648Z,100.00
2023-10-27T05:37:57.610Z,100.00
2023-10-27T05:40:24.638Z,100.00
2023-10-27T05:42:52.965Z,100.00
2023-10-27T05:45:20.052Z,100.00
2023-10-27T05:47:47.034Z,100.00
2023-10-27T05:50:14.005Z,100.00
2023-10-27T05:52:40.987Z,100.00
2023-10-27T05:55:08.380Z,100.00
2023-10-27T05:57:35.399Z,100.00
2023-10-27T06:00:04.137Z,100.00
2023-10-27T06:02:32.242Z,100.00
2023-10-27T06:04:59.197Z,100.00
2023-10-27T06:07:26.135Z,100.00
2023-10-27T06:09:53.115Z,100.00
2023-10-27T06:12:20.251Z,100.00
2023-10-27T06:14:47.218Z,100.00
2023-10-27T06:17:15.539Z,100.00
2023-10-27T06:19:42.646Z,100.00
2023-10-27T06:22:09.787Z,100.00
2023-10-27T06:24:36.802Z,100.00
2023-10-27T06:27:03.748Z,100.00
2023-10-27T06:29:30.713Z,100.00
2023-10-27T06:31:57.632Z,100.00
2023-10-27T06:34:26.048Z,100.00
2023-10-27T06:36:55.337Z,100.00
2023-10-27T06:39:24.606Z,100.00
2023-10-27T06:41:51.577Z,100.00
2023-10-27T06:44:18.697Z,100.00
2023-10-27T06:46:45.700Z,100.00
2023-10-27T06:49:13.317Z,100.00
2023-10-27T06:51:41.659Z,100.00
2023-10-27T06:54:08.665Z,100.00
2023-10-27T06:56:35.712Z,100.00
2023-10-27T06:59:02.688Z,100.00
2023-10-27T07:01:29.648Z,100.00
2023-10-27T07:03:56.708Z,100.00
2023-10-27T07:06:23.751Z,100.00
2023-10-27T07:08:52.148Z,100.00
2023-10-27T07:11:19.083Z,100.00
2023-10-27T07:13:46.036Z,100.00
2023-10-27T07:16:12.996Z,100.00
2023-10-27T07:18:40.047Z,100.00
2023-10-27T07:21:07.258Z,100.00
2023-10-27T07:23:34.395Z,100.00
2023-10-27T07:26:10.644Z,100.00
2023-10-27T07:28:37.656Z,100.00
2023-10-27T07:31:04.675Z,100.00
2023-10-27T07:33:31.673Z,100.00
2023-10-27T07:35:58.658Z,100.00
2023-10-27T07:38:25.695Z,100.00
2023-10-27T07:40:55.508Z,100.00
2023-10-27T07:43:23.954Z,100.00
2023-10-27T07:45:50.921Z,100.00
2023-10-27T07:48:17.886Z,100.00
2023-10-27T07:50:44.902Z,100.00
2023-10-27T07:53:11.857Z,100.00
2023-10-27T07:55:39.042Z,100.00
2023-10-27T07:58:06.242Z,100.00
2023-10-27T08:00:34.727Z,100.00
2023-10-27T08:03:01.713Z,100.00
2023-10-27T08:05:29.070Z,100.00
2023-10-27T08:07:56.029Z,100.00
2023-10-27T08:10:23.019Z,100.00
2023-10-27T08:12:50.121Z,100.00
2023-10-27T08:15:17.111Z,100.00
2023-10-27T08:17:45.526Z,100.00
2023-10-27T08:20:12.512Z,100.00
2023-10-27T08:22:39.478Z,100.00
2023-10-27T08:25:06.599Z,100.00
2023-10-27T08:27:33.784Z,100.00
2023-10-27T08:30:00.962Z,100.00
2023-10-27T08:32:28.177Z,100.00
2023-10-27T08:34:56.605Z,100.00
2023-10-27T08:37:23.633Z,100.00
2023-10-27T08:39:50.671Z,100.00
2023-10-27T08:42:18.087Z,100.00
2023-10-27T08:44:45.476Z,100.00
2023-10-27T08:47:12.861Z,100.00
2023-10-27T08:49:39.884Z,100.00
2023-10-27T08:52:08.497Z,100.00
2023-10-27T08:54:38.240Z,100.00
2023-10-27T08:57:05.906Z,100.00
2023-10-27T08:59:32.913Z,100.00
2023-10-27T09:02:12.521Z,100.00
2023-10-27T09:04:43.000Z,100.00
2023-10-27T09:07:11.549Z,100.00
2023-10-27T09:09:38.594Z,100.00
2023-10-27T09:12:05.836Z,100.00
2023-10-27T09:14:32.851Z,100.00
2023-10-27T09:17:04.579Z,100.00
2023-10-27T09:19:32.011Z,100.00
2023-10-27T09:21:59.086Z,100.00
2023-10-27T09:24:28.033Z,100.00
2023-10-27T09:26:55.796Z,100.00
2023-10-27T09:29:22.994Z,100.00
2023-10-27T09:31:51.830Z,100.00
2023-10-27T09:34:19.926Z,100.00
2023-10-27T09:36:48.113Z,100.00
2023-10-27T09:39:15.486Z,100.00
2023-10-27T09:41:45.603Z,100.00
2023-10-27T09:44:14.804Z,100.00
2023-10-27T09:46:43.368Z,100.00
2023-10-27T09:49:15.609Z,100.00
2023-10-27T09:51:45.171Z,100.00
2023-10-27T09:54:12.609Z,100.00
2023-10-27T09:56:40.849Z,100.00
2023-10-27T09:59:09.386Z,100.00
2023-10-27T10:01:36.513Z,100.00
2023-10-27T10:04:03.667Z,100.00
2023-10-27T10:06:39.625Z,100.00
2023-10-27T10:09:11.828Z,100.00
2023-10-27T10:11:54.385Z,100.00
2023-10-27T10:14:39.864Z,100.00
2023-10-27T10:17:08.217Z,100.00
2023-10-27T10:19:47.177Z,100.00
2023-10-27T10:22:41.636Z,100.00
2023-10-27T10:25:28.138Z,100.00
2023-10-27T10:28:14.025Z,100.00
2023-10-27T10:30:41.753Z,100.00
2023-10-27T10:33:17.769Z,100.00
2023-10-27T10:35:45.505Z,100.00
2023-10-27T10:38:31.213Z,100.00
2023-10-27T10:40:58.939Z,100.00
2023-10-27T10:43:26.334Z,100.00
2023-10-27T10:45:54.015Z,100.00
2023-10-27T10:48:23.302Z,100.00
2023-10-27T10:50:50.747Z,100.00
2023-10-27T10:53:18.803Z,100.00
2023-10-27T10:55:45.990Z,100.00
2023-10-27T10:58:20.175Z,100.00
2023-10-27T11:00:47.145Z,100.00
2023-10-27T11:03:15.561Z,100.00
2023-10-27T11:05:44.636Z,100.00
2023-10-27T11:08:11.653Z,100.00
2023-10-27T11:10:38.613Z,100.00
2023-10-27T11:13:06.287Z,100.00
2023-10-27T11:15:43.791Z,100.00
2023-10-27T11:18:12.004Z,100.00
2023-10-27T11:20:39.256Z,100.00
2023-10-27T11:23:11.081Z,100.00
2023-10-27T11:25:38.193Z,100.00
2023-10-27T11:28:21.269Z,100.00
2023-10-27T11:31:01.430Z,100.00
2023-10-27T11:33:28.750Z,100.00
2023-10-27T11:35:56.085Z,100.00
2023-10-27T11:38:30.683Z,100.00
2023-10-27T11:41:11.850Z,100.00
2023-10-27T11:43:41.902Z,100.00
2023-10-27T11:46:09.664Z,100.00
2023-10-27T11:48:36.773Z,100.00
2023-10-27T11:51:04.026Z,100.00
2023-10-27T11:53:32.344Z,100.00
2023-10-27T11:55:59.315Z,100.00
2023-10-27T11:58:26.336Z,100.00
2023-10-27T12:00:53.328Z,100.00
2023-10-27T12:03:20.410Z,100.00
2023-10-27T12:05:47.479Z,100.00
2023-10-27T12:08:14.514Z,100.00
2023-10-27T12:10:42.896Z,100.00
2023-10-27T12:13:09.896Z,100.00
2023-10-27T12:15:37.054Z,98.82
2023-10-27T12:18:04.187Z,98.58
2023-10-27T12:20:31.191Z,99.19
2023-10-27T12:22:58.161Z,97.31
2023-10-27T12:25:25.203Z,94.76
2023-10-27T12:27:53.567Z,95.18
2023-10-27T12:30:20.558Z,95.11
2023-10-27T12:32:47.900Z,95.04
2023-10-27T12:35:14.989Z,95.14
2023-10-27T12:37:41.958Z,95.24
2023-10-27T12:40:09.784Z,95.11
2023-10-27T12:42:36.844Z,95.64
2023-10-27T12:45:05.748Z,95.69
2023-10-27T12:47:32.747Z,95.67
2023-10-27T12:49:59.805Z,96.48
2023-10-27T12:52:27.346Z,95.36
2023-10-27T12:54:54.301Z,96.67
2023-10-27T12:57:21.261Z,96.01
2023-10-27T12:59:48.179Z,95.27
2023-10-27T13:02:16.526Z,94.41
2023-10-27T13:04:43.758Z,93.81
2023-10-27T13:07:10.848Z,94.53
2023-10-27T13:09:37.784Z,94.65
2023-10-27T13:12:05.060Z,92.77
2023-10-27T13:14:32.026Z,92.24
2023-10-27T13:16:58.962Z,93.21
2023-10-27T13:19:29.208Z,92.92
2023-10-27T13:21:56.204Z,90.43
2023-10-27T13:24:23.180Z,88.96
2023-10-27T13:26:50.110Z,88.17
2023-10-27T13:29:17.104Z,89.15
2023-10-27T13:31:44.050Z,90.14
2023-10-27T13:34:11.008Z,89.29
2023-10-27T13:36:39.321Z,90.82
2023-10-27T13:39:06.516Z,92.18
2023-10-27T13:41:33.696Z,91.40
2023-10-27T13:44:00.694Z,91.19
2023-10-27T13:46:27.647Z,90.46
2023-10-27T13:48:54.566Z,90.61
2023-10-27T13:51:21.525Z,90.94
2023-10-27T13:53:49.832Z,91.65
2023-10-27T13:56:20.815Z,90.92
2023-10-27T13:58:48.205Z,89.00
2023-10-27T14:01:15.202Z,89.47
2023-10-27T14:03:42.232Z,91.02
2023-10-27T14:06:09.288Z,92.64
2023-10-27T14:08:36.281Z,94.16
2023-10-27T14:11:06.599Z,96.01
2023-10-27T14:13:33.876Z,95.95
2023-10-27T14:16:00.910Z,93.46
2023-10-27T14:18:28.030Z,93.95
2023-10-27T14:20:55.025Z,94.50
2023-10-27T14:23:22.035Z,95.11
2023-10-27T14:25:49.004Z,94.92
2023-10-27T14:28:17.348Z,95.07
2023-10-27T14:30:44.334Z,94.98
2023-10-27T14:33:11.409Z,95.12
2023-10-27T14:35:38.487Z,95.51
2023-10-27T14:38:05.473Z,95.86
2023-10-27T14:40:32.548Z,95.40
2023-10-27T14:42:59.529Z,94.38
2023-10-27T14:45:27.874Z,95.44
2023-10-27T14:47:54.895Z,95.27
2023-10-27T14:50:21.999Z,95.79
2023-10-27T14:52:48.951Z,96.06
2023-10-27T14:55:16.215Z,96.78
2023-10-27T14:57:43.310Z,96.77
2023-10-27T15:00:10.651Z,97.27
2023-10-27T15:02:39.084Z,97.82
2023-10-27T15:05:06.364Z,98.45
2023-10-27T15:07:33.408Z,98.63
2023-10-27T15:10:00.425Z,98.24
2023-10-27T15:12:27.582Z,98.82
2023-10-27T15:14:54.578Z,99.38
2023-10-27T15:17:21.518Z,99.05
2023-10-27T15:19:52.028Z,99.31
2023-10-27T15:22:19.023Z,98.79
2023-10-27T15:24:46.316Z,97.73
2023-10-27T15:27:13.396Z,98.69
2023-10-27T15:29:40.396Z,98.86
2023-10-27T15:32:07.437Z,99.28
2023-10-27T15:34:34.454Z,99.49
2023-10-27T15:37:03.031Z,98.99
2023-10-27T15:39:29.971Z,99.33
2023-10-27T15:41:56.995Z,99.82
2023-10-27T15:44:24.054Z,100.00
2023-10-27T15:46:51.285Z,100.00
2023-10-27T15:49:18.260Z,100.00
2023-10-27T15:51:45.223Z,100.00
2023-10-27T15:54:13.555Z,100.00
2023-10-27T15:56:40.508Z,100.00
2023-10-27T15:59:07.522Z,100.00
2023-10-27T16:01:34.555Z,100.00
2023-10-27T16:04:01.613Z,100.00
2023-10-27T16:06:28.659Z,100.00
2023-10-27T16:08:55.593Z,100.00
2023-10-27T16:11:23.947Z,100.00
2023-10-27T16:13:51.128Z,100.00
2023-10-27T16:16:18.127Z,100.00
2023-10-27T16:18:45.243Z,100.00
2023-10-27T16:21:12.344Z,100.00
2023-10-27T16:23:39.306Z,100.00
2023-10-27T16:26:06.225Z,100.00
2023-10-27T16:28:34.554Z,100.00
2023-10-27T16:31:01.645Z,100.00
2023-10-27T16:33:28.677Z,100.00
2023-10-27T16:35:55.618Z,100.00
2023-10-27T16:38:22.581Z,100.00
2023-10-27T16:40:49.566Z,100.00
2023-10-27T16:43:16.537Z,100.00
2023-10-27T16:45:44.832Z,100.00
2023-10-27T16:48:11.770Z,100.00
2023-10-27T16:50:38.743Z,100.00
2023-10-27T16:53:05.711Z,100.00
2023-10-27T16:55:32.712Z,100.00
2023-10-27T16:58:00.966Z,100.00
2023-10-27T17:00:27.947Z,100.00
2023-10-27T17:02:56.307Z,100.00
2023-10-27T17:05:23.336Z,100.00
2023-10-27T17:07:50.407Z,100.00
2023-10-27T17:10:17.523Z,100.00
2023-10-27T17:12:44.507Z,100.00
2023-10-27T17:15:11.468Z,100.00
2023-10-27T17:17:38.483Z,100.00
2023-10-27T17:20:16.228Z,100.00
2023-10-27T17:22:44.980Z,100.00
2023-10-27T17:25:12.203Z,100.00
2023-10-27T17:27:39.254Z,100.00
2023-10-27T17:30:06.867Z,100.00
2023-10-27T17:32:34.025Z,100.00
2023-10-27T17:35:01.133Z,100.00
2023-10-27T17:37:29.672Z,100.00
2023-10-27T17:39:56.662Z,100.00
2023-10-27T17:42:23.742Z,100.00
2023-10-27T17:44:50.806Z,100.00
2023-10-27T17:47:17.788Z,100.00
2023-10-27T17:49:45.161Z,100.00
2023-10-27T17:52:12.316Z,100.00
2023-10-27T17:54:41.012Z,100.00
2023-10-27T17:57:08.216Z,100.00
2023-10-27T17:59:35.151Z,100.00
2023-10-27T18:02:02.230Z,100.00
2023-10-27T18:04:29.193Z,100.00
2023-10-27T18:06:56.136Z,100.00
2023-10-27T18:09:23.129Z,100.00
2023-10-27T18:11:51.447Z,100.00
2023-10-27T18:14:18.448Z,100.00
2023-10-27T18:16:46.473Z,100.00
2023-10-27T18:19:13.432Z,100.00
2023-10-27T18:21:40.368Z,100.00
2023-10-27T18:24:07.403Z,100.00
2023-10-27T18:26:34.334Z,100.00
2023-10-27T18:29:02.696Z,100.00
2023-10-27T18:31:29.721Z,100.00
2023-10-27T18:33:56.755Z,100.00
2023-10-27T18:36:23.797Z,100.00
2023-10-27T18:38:50.715Z,100.00
2023-10-27T18:41:17.692Z,100.00
2023-10-27T18:43:44.824Z,100.00
2023-10-27T18:46:13.169Z,100.00
2023-10-27T18:48:40.260Z,100.00
2023-10-27T18:51:07.394Z,100.00
2023-10-27T18:53:37.474Z,100.00
2023-10-27T18:56:05.540Z,100.00
2023-10-27T18:58:32.561Z,100.00
2023-10-27T19:00:59.582Z,100.00
2023-10-27T19:03:28.199Z,100.00
2023-10-27T19:05:55.263Z,100.00
2023-10-27T19:08:22.241Z,100.00
2023-10-27T19:10:49.297Z,100.00
2023-10-27T19:13:16.336Z,100.00
2023-10-27T19:15:44.748Z,100.00
2023-10-27T19:18:11.742Z,100.00
2023-10-27T19:20:40.062Z,100.00
2023-10-27T19:23:08.621Z,100.00
2023-10-27T19:25:35.711Z,100.00
2023-10-27T19:28:02.744Z,100.00
2023-10-27T19:30:29.757Z,100.00
2023-10-27T19:32:56.742Z,100.00
2023-10-27T19:35:23.777Z,100.00
2023-10-27T19:37:52.138Z,100.00
2023-10-27T19:40:19.117Z,100.00
2023-10-27T19:42:46.040Z,100.00
2023-10-27T19:45:12.990Z,100.00
2023-10-27T19:47:39.957Z,100.00
2023-10-27T19:50:07.382Z,100.00
2023-10-27T19:52:34.426Z,100.00
2023-10-27T19:55:02.785Z,100.00
2023-10-27T19:57:29.740Z,100.00
2023-10-27T19:59:56.709Z,100.00
2023-10-27T20:02:23.657Z,100.00
2023-10-27T20:04:50.703Z,100.00
2023-10-27T20:07:17.765Z,100.00
2023-10-27T20:09:44.959Z,100.00
2023-10-27T20:12:13.533Z,100.00
2023-10-27T20:14:42.137Z,100.00
2023-10-27T20:17:10.774Z,100.00
2023-10-27T20:19:37.787Z,100.00
2023-10-27T20:22:04.725Z,100.00
2023-10-27T20:24:31.685Z,100.00
2023-10-27T20:26:59.204Z,100.00
2023-10-27T20:29:27.535Z,100.00
2023-10-27T20:31:54.472Z,100.00
2023-10-27T20:34:21.518Z,100.00
2023-10-27T20:36:48.531Z,100.00
2023-10-27T20:39:15.480Z,100.00
2023-10-27T20:41:42.409Z,100.00
2023-10-27T20:44:09.350Z,100.00
2023-10-27T20:46:37.711Z,100.00
2023-10-27T20:49:04.848Z,100.00
2023-10-27T20:51:31.821Z,100.00
2023-10-27T20:53:58.769Z,100.00
2023-10-27T20:56:25.753Z,100.00
2023-10-27T20:58:52.717Z,100.00
2023-10-27T21:01:19.684Z,100.00
2023-10-27T21:03:48.023Z,100.00
2023-10-27T21:06:14.958Z,100.00
2023-10-27T21:08:41.975Z,100.00
2023-10-27T21:11:09.248Z,100.00
2023-10-27T21:13:36.294Z,100.00
2023-10-27T21:16:06.689Z,100.00
2023-10-27T21:18:33.608Z,100.00
2023-10-27T21:21:01.950Z,100.00
2023-10-27T21:23:28.998Z,100.00
2023-10-27T21:25:56.259Z,100.00
2023-10-27T21:28:23.303Z,100.00
2023-10-27T21:30:50.245Z,100.00
2023-10-27T21:33:17.210Z,100.00
2023-10-27T21:35:45.201Z,100.00
2023-10-27T21:38:13.620Z,100.00
2023-10-27T21:40:40.771Z,100.00
2023-10-27T21:43:07.784Z,100.00
2023-10-27T21:45:34.729Z,100.00
2023-10-27T21:48:01.734Z,100.00
2023-10-27T21:50:28.741Z,100.00
2023-10-27T21:52:55.733Z,100.00
2023-10-27T21:55:24.123Z,100.00
2023-10-27T21:57:51.073Z,100.00
2023-10-27T22:00:18.112Z,100.00
2023-10-27T22:02:45.163Z,100.00
2023-10-27T22:05:12.229Z,100.00
2023-10-27T22:07:39.252Z,100.00
2023-10-27T22:10:06.665Z,100.00
2023-10-27T22:12:35.458Z,100.00
2023-10-27T22:15:02.782Z,100.00
2023-10-27T22:17:29.828Z,100.00
2023-10-27T22:19:56.890Z,100.00
2023-10-27T22:22:23.882Z,100.00
2023-10-27T22:24:50.799Z,100.00
2023-10-27T22:27:17.757Z,100.00
2023-10-27T22:29:46.229Z,100.00
2023-10-27T22:32:13.310Z,100.00
2023-10-27T22:34:40.250Z,100.00
2023-10-27T22:37:07.222Z,100.00
2023-10-27T22:39:34.131Z,100.00
2023-10-27T22:42:01.088Z,100.00
2023-10-27T22:44:28.076Z,100.00
2023-10-27T22:46:56.465Z,100.00
2023-10-27T22:49:23.482Z,100.00
2023-10-27T22:51:50.426Z,100.00
2023-10-27T22:54:17.389Z,100.00
2023-10-27T22:56:44.355Z,100.00
2023-10-27T22:59:11.383Z,100.00
2023-10-27T23:01:38.497Z,100.00
2023-10-27T23:04:06.885Z,100.00
2023-10-27T23:06:33.843Z,100.00
2023-10-27T23:09:00.775Z,100.00
2023-10-27T23:11:27.754Z,100.00
2023-10-27T23:13:54.753Z,100.00
2023-10-27T23:16:21.863Z,100.00
2023-10-27T23:18:49.006Z,100.00
2023-10-27T23:21:17.339Z,100.00
2023-10-27T23:23:44.576Z,100.00
2023-10-27T23:26:11.825Z,100.00
2023-10-27T23:28:39.431Z,100.00
2023-10-27T23:31:06.914Z,100.00
2023-10-27T23:33:34.050Z,100.00
2023-10-27T23:36:01.402Z,100.00
2023-10-27T23:38:29.853Z,100.00
2023-10-27T23:40:56.845Z,100.00
2023-10-27T23:43:23.872Z,100.00
2023-10-27T23:45:50.803Z,100.00
2023-10-27T23:48:17.764Z,100.00
2023-10-27T23:50:44.808Z,100.00
2023-10-27T23:53:11.795Z,100.00
2023-10-27T23:55:40.179Z,100.00
2023-10-27T23:58:07.220Z,100.00
